Terminal Aerodrome Forecast
Issued by NWS

Home | Current Version | Previous Version | Text Only | Print | Product List | Glossary On
Versions: 1 2 3 4 5 6 7 8 9 10 11 12 13 14
000
FTUS46 KSEW 052300
TAFPAE
TAF
KPAE 052320Z 0600/0624 VRB05KT P6SM -SHRA VCTS BKN045CB BKN080
     FM060400 35005KT P6SM VCSH BKN035 BKN045
     FM060700 35005KT P6SM BKN025 BKN040
     FM061600 34006KT P6SM SCT025 SCT040=

USA.gov is the U.S. government's official web portal to all federal, state and local government web resources and services.